Terminal Aerodrome Forecast
Issued by NWS

Home | Current Version | Previous Version | Graphics & Text | Print | Product List | Glossary On
Versions: 1 2 3 4 5 6 7 8 9 10 11 12 13 14
000
FTUS43 KMPX 260520
TAFRWF
TAF
KRWF 260520Z 2606/2706 33012G20KT P6SM SKC
     FM261000 32010KT P6SM SKC
     FM261600 32012G18KT P6SM SCT030
     FM270000 31008KT P6SM SKC=

USA.gov is the U.S. government's official web portal to all federal, state and local government web resources and services.